createdAt,value
2023-02-12T00:01:32.807Z,4.10
2023-02-12T00:04:01.726Z,4.01
2023-02-12T00:06:28.458Z,3.83
2023-02-12T00:09:07.637Z,3.86
2023-02-12T00:11:34.524Z,3.95
2023-02-12T00:14:10.049Z,3.94
2023-02-12T00:16:40.173Z,3.92
2023-02-12T00:19:07.486Z,3.72
2023-02-12T00:21:41.722Z,3.72
2023-02-12T00:24:15.959Z,3.80
2023-02-12T00:26:47.123Z,3.80
2023-02-12T00:29:17.983Z,3.88
2023-02-12T00:31:54.805Z,3.81
2023-02-12T00:34:21.525Z,3.85
2023-02-12T00:36:56.061Z,3.67
2023-02-12T00:39:25.712Z,3.59
2023-02-12T00:41:55.902Z,3.56
2023-02-12T00:44:22.611Z,3.60
2023-02-12T00:46:56.762Z,3.64
2023-02-12T00:49:26.267Z,3.65
2023-02-12T00:51:52.916Z,3.54
2023-02-12T00:54:22.180Z,3.55
2023-02-12T00:56:48.888Z,3.54
2023-02-12T00:59:23.177Z,3.47
2023-02-12T01:01:50.536Z,3.44
2023-02-12T01:04:25.209Z,3.56
2023-02-12T01:06:57.640Z,3.69
2023-02-12T01:09:24.327Z,3.69
2023-02-12T01:11:54.416Z,3.59
2023-02-12T01:14:21.229Z,3.54
2023-02-12T01:16:48.048Z,3.60
2023-02-12T01:19:16.691Z,3.53
2023-02-12T01:21:43.507Z,3.48
2023-02-12T01:24:10.394Z,3.46
2023-02-12T01:26:42.337Z,3.44
2023-02-12T01:29:09.047Z,3.39
2023-02-12T01:31:41.837Z,3.34
2023-02-12T01:34:12.481Z,3.33
2023-02-12T01:36:44.857Z,3.30
2023-02-12T01:39:14.662Z,3.33
2023-02-12T01:41:48.253Z,3.48
2023-02-12T01:44:28.833Z,3.44
2023-02-12T01:47:12.651Z,3.28
2023-02-12T01:49:44.716Z,3.29
2023-02-12T01:52:18.850Z,3.16
2023-02-12T01:54:50.588Z,3.12
2023-02-12T01:57:19.898Z,3.12
2023-02-12T01:59:50.900Z,3.09
2023-02-12T02:02:17.841Z,3.13
2023-02-12T02:04:51.876Z,3.17
2023-02-12T02:07:18.982Z,3.20
2023-02-12T02:09:46.125Z,3.30
2023-02-12T02:12:13.004Z,3.16
2023-02-12T02:14:54.256Z,3.13
2023-02-12T02:17:47.120Z,3.25
2023-02-12T02:20:38.644Z,3.20
2023-02-12T02:23:39.337Z,3.32
2023-02-12T02:26:30.688Z,3.17
2023-02-12T02:29:09.201Z,3.04
2023-02-12T02:31:47.461Z,2.99
2023-02-12T02:34:44.936Z,2.95
2023-02-12T02:37:17.126Z,2.97
2023-02-12T02:39:49.595Z,2.91
2023-02-12T02:42:19.112Z,2.92
2023-02-12T02:45:04.723Z,2.86
2023-02-12T02:50:33.522Z,2.77
2023-02-12T02:53:22.702Z,2.78
2023-02-12T02:55:57.361Z,2.65
2023-02-12T02:58:30.799Z,2.68
2023-02-12T03:01:03.409Z,2.80
2023-02-12T03:03:46.028Z,2.71
2023-02-12T03:06:28.060Z,2.61
2023-02-12T03:09:03.429Z,2.76
2023-02-12T03:11:33.760Z,2.77
2023-02-12T03:14:29.673Z,2.73
2023-02-12T03:17:05.746Z,2.67
2023-02-12T03:19:43.975Z,2.72
2023-02-12T03:22:25.675Z,2.58
2023-02-12T03:25:00.833Z,2.73
2023-02-12T03:27:39.314Z,2.75
2023-02-12T03:30:07.839Z,2.82
2023-02-12T03:33:04.639Z,2.70
2023-02-12T03:35:48.014Z,2.80
2023-02-12T03:38:34.518Z,2.65
2023-02-12T03:41:31.841Z,2.68
2023-02-12T03:44:23.686Z,2.96
2023-02-12T03:47:10.180Z,2.93
2023-02-12T03:49:53.200Z,2.82
2023-02-12T03:52:20.074Z,2.91
2023-02-12T03:54:46.900Z,2.81
2023-02-12T03:57:28.784Z,2.77
2023-02-12T03:59:58.719Z,2.72
2023-02-12T04:02:37.491Z,2.78
2023-02-12T04:05:08.092Z,2.96
2023-02-12T04:07:36.848Z,2.86
2023-02-12T04:10:10.825Z,2.82
2023-02-12T04:12:53.426Z,2.82
2023-02-12T04:15:23.153Z,2.87
2023-02-12T04:18:23.669Z,2.92
2023-02-12T04:21:03.446Z,3.01
2023-02-12T04:24:08.684Z,3.10
2023-02-12T04:26:49.487Z,3.13
2023-02-12T04:29:35.888Z,3.10
2023-02-12T04:32:24.578Z,3.12
2023-02-12T04:35:16.153Z,3.16
2023-02-12T04:37:51.759Z,3.00
2023-02-12T04:40:21.785Z,3.24
2023-02-12T04:42:56.737Z,3.21
2023-02-12T04:45:34.713Z,3.31
2023-02-12T04:48:14.116Z,3.27
2023-02-12T04:50:46.059Z,3.35
2023-02-12T04:53:12.717Z,3.23
2023-02-12T04:55:39.496Z,3.18
2023-02-12T04:58:08.920Z,3.21
2023-02-12T05:00:35.986Z,3.18
2023-02-12T05:03:08.639Z,2.98
2023-02-12T05:05:35.398Z,3.00
2023-02-12T05:08:02.043Z,2.96
2023-02-12T05:10:28.733Z,2.97
2023-02-12T05:13:04.775Z,3.09
2023-02-12T05:15:44.116Z,3.02
2023-02-12T05:18:19.201Z,2.94
2023-02-12T05:20:48.728Z,2.93
2023-02-12T05:23:15.403Z,2.95
2023-02-12T05:25:48.850Z,2.98
2023-02-12T05:28:18.187Z,3.06
2023-02-12T05:30:44.951Z,3.12
2023-02-12T05:33:21.946Z,3.07
2023-02-12T05:35:48.562Z,2.90
2023-02-12T05:38:15.152Z,2.92
2023-02-12T05:40:41.798Z,2.90
2023-02-12T05:43:08.608Z,2.92
2023-02-12T05:45:48.239Z,2.98
2023-02-12T05:48:15.063Z,2.87
2023-02-12T05:50:41.702Z,2.88
2023-02-12T05:53:08.364Z,2.97
2023-02-12T05:55:35.075Z,2.97
2023-02-12T05:58:01.744Z,2.94
2023-02-12T06:00:28.431Z,3.13
2023-02-12T06:02:56.770Z,2.93
2023-02-12T06:05:26.460Z,2.84
2023-02-12T06:07:53.075Z,2.78
2023-02-12T06:10:19.714Z,2.69
2023-02-12T06:12:58.041Z,2.79
2023-02-12T06:15:25.828Z,2.82
2023-02-12T06:17:53.890Z,2.95
2023-02-12T06:20:24.165Z,3.22
2023-02-12T06:22:56.911Z,3.11
2023-02-12T06:25:35.105Z,3.21
2023-02-12T06:28:01.881Z,3.01
2023-02-12T06:30:28.683Z,2.97
2023-02-12T06:32:58.188Z,2.98
2023-02-12T06:35:35.905Z,2.86
2023-02-12T06:38:05.922Z,2.89
2023-02-12T06:40:47.074Z,2.93
2023-02-12T06:43:13.750Z,2.93
2023-02-12T06:45:49.823Z,2.97
2023-02-12T06:48:16.435Z,3.10
2023-02-12T06:50:43.089Z,3.04
2023-02-12T06:53:12.857Z,3.06
2023-02-12T06:55:46.701Z,3.01
2023-02-12T07:01:36.366Z,3.18
2023-02-12T07:04:11.105Z,3.13
2023-02-12T07:06:37.717Z,3.23
2023-02-12T07:09:05.495Z,3.29
2023-02-12T07:11:38.365Z,3.32
2023-02-12T07:14:15.833Z,3.26
2023-02-12T07:16:42.668Z,3.30
2023-02-12T07:19:16.408Z,3.47
2023-02-12T07:21:42.950Z,3.54
2023-02-12T07:24:21.973Z,3.71
2023-02-12T07:26:54.278Z,3.69
2023-02-12T07:29:23.379Z,3.81
2023-02-12T07:31:51.460Z,3.97
2023-02-12T07:34:20.624Z,4.01
2023-02-12T07:36:47.247Z,4.15
2023-02-12T07:39:15.735Z,4.40
2023-02-12T07:41:52.462Z,4.48
2023-02-12T07:44:25.093Z,4.47
2023-02-12T07:47:16.799Z,4.46
2023-02-12T07:49:44.233Z,4.43
2023-02-12T07:52:13.295Z,4.69
2023-02-12T07:54:40.002Z,4.85
2023-02-12T07:57:09.172Z,4.78
2023-02-12T07:59:54.709Z,4.76
2023-02-12T08:02:21.295Z,5.10
2023-02-12T08:05:07.118Z,5.23
2023-02-12T08:07:33.662Z,5.13
2023-02-12T08:10:00.229Z,5.13
2023-02-12T08:12:35.891Z,5.18
2023-02-12T08:15:14.616Z,5.56
2023-02-12T08:17:43.820Z,5.82
2023-02-12T08:20:13.390Z,5.96
2023-02-12T08:22:39.966Z,6.00
2023-02-12T08:25:06.712Z,6.04
2023-02-12T08:27:36.341Z,6.08
2023-02-12T08:30:03.033Z,6.29
2023-02-12T08:32:30.747Z,6.40
2023-02-12T08:34:57.326Z,6.43
2023-02-12T08:37:26.724Z,6.47
2023-02-12T08:39:55.851Z,7.00
2023-02-12T08:42:25.794Z,7.25
2023-02-12T08:44:53.536Z,7.16
2023-02-12T08:47:36.092Z,7.15
2023-02-12T08:50:02.689Z,7.04
2023-02-12T08:52:32.046Z,7.21
2023-02-12T08:55:04.601Z,7.36
2023-02-12T08:57:31.245Z,7.55
2023-02-12T09:00:00.628Z,7.85
2023-02-12T09:02:27.212Z,8.07
2023-02-12T09:05:08.934Z,8.30
2023-02-12T09:07:44.352Z,8.16
2023-02-12T09:10:11.089Z,8.18
2023-02-12T09:12:47.872Z,8.24
2023-02-12T09:15:14.549Z,8.14
2023-02-12T09:17:49.989Z,8.17
2023-02-12T09:20:16.555Z,8.13
2023-02-12T09:22:43.163Z,8.26
2023-02-12T09:25:09.821Z,8.44
2023-02-12T09:27:36.422Z,8.53
2023-02-12T09:30:05.996Z,8.40
2023-02-12T09:32:32.571Z,8.34
2023-02-12T09:34:59.189Z,8.42
2023-02-12T09:37:25.781Z,8.40
2023-02-12T09:39:56.367Z,8.43
2023-02-12T09:45:33.646Z,8.23
2023-02-12T09:48:32.759Z,8.43
2023-02-12T09:51:03.502Z,8.37
2023-02-12T09:53:44.193Z,8.30
2023-02-12T09:56:22.941Z,8.39
2023-02-12T09:58:56.787Z,8.50
2023-02-12T10:01:37.640Z,8.65
2023-02-12T10:04:11.089Z,8.83
2023-02-12T10:10:06.909Z,9.17
2023-02-12T10:12:41.663Z,9.19
2023-02-12T10:15:30.491Z,9.15
2023-02-12T10:18:22.243Z,9.28
2023-02-12T10:21:15.556Z,9.31
2023-02-12T10:24:00.265Z,9.42
2023-02-12T10:26:40.028Z,9.21
2023-02-12T10:29:25.744Z,9.27
2023-02-12T10:32:13.534Z,9.36
2023-02-12T10:34:42.464Z,9.50
2023-02-12T10:37:38.665Z,9.57
2023-02-12T10:40:23.796Z,9.55
2023-02-12T10:42:55.516Z,9.50
2023-02-12T10:48:15.274Z,10.06
2023-02-12T10:51:01.263Z,10.02
2023-02-12T10:53:46.723Z,9.83
2023-02-12T10:56:22.275Z,9.90
2023-02-12T10:58:55.198Z,9.90
2023-02-12T11:01:41.300Z,10.01
2023-02-12T11:04:31.076Z,10.06
2023-02-12T11:07:28.920Z,9.93
2023-02-12T11:10:12.807Z,10.09
2023-02-12T11:12:42.904Z,10.23
2023-02-12T11:15:19.531Z,10.22
2023-02-12T11:18:06.243Z,10.11
2023-02-12T11:20:53.814Z,9.98
2023-02-12T11:23:39.079Z,10.25
2023-02-12T11:26:17.883Z,10.26
2023-02-12T11:29:18.944Z,10.37
2023-02-12T11:32:09.762Z,10.60
2023-02-12T11:34:37.081Z,10.42
2023-02-12T11:37:04.426Z,10.45
2023-02-12T11:39:38.641Z,10.42
2023-02-12T11:42:17.846Z,10.33
2023-02-12T11:44:53.154Z,10.36
2023-02-12T11:47:23.799Z,10.38
2023-02-12T11:49:55.899Z,10.57
2023-02-12T11:52:26.946Z,10.69
2023-02-12T11:55:04.941Z,10.61
2023-02-12T11:57:49.726Z,10.88
2023-02-12T12:00:34.091Z,10.87
2023-02-12T12:03:33.425Z,10.59
2023-02-12T12:06:17.452Z,10.56
2023-02-12T12:08:54.575Z,10.76
2023-02-12T12:11:53.439Z,10.94
2023-02-12T12:14:40.024Z,10.79
2023-02-12T12:17:16.930Z,10.77
2023-02-12T12:19:58.617Z,10.82
2023-02-12T12:22:50.350Z,10.97
2023-02-12T12:25:19.613Z,10.97
2023-02-12T12:28:23.759Z,10.87
2023-02-12T12:31:03.563Z,11.05
2023-02-12T12:33:37.612Z,11.02
2023-02-12T12:36:13.104Z,11.07
2023-02-12T12:38:55.774Z,11.06
2023-02-12T12:41:44.236Z,11.16
2023-02-12T12:44:46.581Z,11.19
2023-02-12T12:47:58.244Z,11.15
2023-02-12T12:50:55.663Z,11.20
2023-02-12T12:54:03.216Z,11.29
2023-02-12T12:56:56.236Z,11.20
2023-02-12T12:59:51.509Z,11.27
2023-02-12T13:02:39.628Z,11.20
2023-02-12T13:05:37.047Z,11.11
2023-02-12T13:08:36.108Z,11.33
2023-02-12T13:11:16.823Z,11.31
2023-02-12T13:13:48.189Z,11.30
2023-02-12T13:16:37.113Z,11.26
2023-02-12T13:19:54.622Z,11.42
2023-02-12T13:22:55.872Z,11.22
2023-02-12T13:25:51.840Z,11.10
2023-02-12T13:28:37.698Z,11.17
2023-02-12T13:31:32.465Z,11.05
2023-02-12T13:34:07.878Z,11.03
2023-02-12T13:36:38.848Z,11.04
2023-02-12T13:39:35.325Z,11.08
2023-02-12T13:42:27.450Z,11.04
2023-02-12T13:45:26.848Z,11.06
2023-02-12T13:48:30.588Z,11.19
2023-02-12T13:54:36.525Z,11.08
2023-02-12T13:57:14.107Z,11.16
2023-02-12T14:00:08.335Z,11.40
2023-02-12T14:02:34.968Z,11.21
2023-02-12T14:05:25.657Z,11.15
2023-02-12T14:07:56.311Z,11.16
2023-02-12T14:10:42.803Z,11.23
2023-02-12T14:16:31.270Z,11.01
2023-02-12T14:19:36.870Z,11.00
2023-02-12T14:22:19.430Z,11.20
2023-02-12T14:24:51.564Z,11.15
2023-02-12T14:28:04.542Z,11.21
2023-02-12T14:30:45.846Z,11.14
2023-02-12T14:33:25.275Z,11.09
2023-02-12T14:36:14.822Z,11.03
2023-02-12T14:39:31.141Z,10.99
2023-02-12T14:45:35.740Z,11.04
2023-02-12T14:48:05.610Z,10.94
2023-02-12T14:50:44.728Z,10.92
2023-02-12T14:53:26.558Z,11.06
2023-02-12T14:56:06.455Z,10.99
2023-02-12T14:58:41.859Z,10.95
2023-02-12T15:01:23.774Z,10.84
2023-02-12T15:03:54.822Z,10.96
2023-02-12T15:06:51.161Z,10.89
2023-02-12T15:09:39.247Z,10.95
2023-02-12T15:12:19.914Z,11.11
2023-02-12T15:15:23.381Z,10.97
2023-02-12T15:18:03.605Z,10.89
2023-02-12T15:20:37.686Z,10.86
2023-02-12T15:23:42.290Z,10.93
2023-02-12T15:26:49.400Z,10.89
2023-02-12T15:29:52.417Z,10.77
2023-02-12T15:32:39.038Z,10.76
2023-02-12T15:35:05.989Z,10.68
2023-02-12T15:37:35.816Z,10.72
2023-02-12T15:40:02.865Z,10.73
2023-02-12T15:42:37.371Z,10.75
2023-02-12T15:45:16.136Z,10.70
2023-02-12T15:47:44.435Z,10.71
2023-02-12T15:50:18.080Z,10.69
2023-02-12T15:52:57.059Z,10.62
2023-02-12T15:55:28.508Z,10.57
2023-02-12T15:58:00.141Z,10.44
2023-02-12T16:00:43.674Z,10.37
2023-02-12T16:03:23.702Z,10.35
2023-02-12T16:05:51.770Z,10.25
2023-02-12T16:08:28.194Z,10.19
2023-02-12T16:10:58.541Z,10.15
2023-02-12T16:13:36.885Z,10.19
2023-02-12T16:16:24.369Z,10.10
2023-02-12T16:19:24.480Z,10.00
2023-02-12T16:24:54.940Z,10.02
2023-02-12T16:27:25.448Z,9.92
2023-02-12T16:30:26.341Z,9.84
2023-02-12T16:33:00.041Z,9.83
2023-02-12T16:35:40.424Z,9.76
2023-02-12T16:38:45.979Z,9.82
2023-02-12T16:44:48.895Z,9.56
2023-02-12T16:47:24.347Z,9.51
2023-02-12T16:50:15.284Z,9.52
2023-02-12T16:53:01.015Z,9.49
2023-02-12T16:55:33.616Z,9.45
2023-02-12T16:58:01.063Z,9.43
2023-02-12T17:00:56.778Z,9.33
2023-02-12T17:03:26.539Z,9.43
2023-02-12T17:06:02.264Z,9.29
2023-02-12T17:08:28.935Z,9.21
2023-02-12T17:13:41.366Z,9.01
2023-02-12T17:16:12.616Z,9.06
2023-02-12T17:18:54.000Z,9.09
2023-02-12T17:21:41.153Z,9.04
2023-02-12T17:24:10.677Z,8.99
2023-02-12T17:26:39.934Z,8.89
2023-02-12T17:29:09.769Z,8.79
2023-02-12T17:31:47.013Z,8.72
2023-02-12T17:34:20.539Z,8.72
2023-02-12T17:37:06.757Z,8.69
2023-02-12T17:39:33.412Z,8.66
2023-02-12T17:41:59.988Z,8.64
2023-02-12T17:44:37.636Z,8.59
2023-02-12T17:47:09.965Z,8.56
2023-02-12T17:49:39.671Z,8.51
2023-02-12T17:52:07.656Z,8.62
2023-02-12T17:54:37.762Z,8.49
2023-02-12T17:57:07.344Z,8.48
2023-02-12T17:59:46.797Z,8.32
2023-02-12T18:02:33.984Z,8.32
2023-02-12T18:05:00.523Z,8.27
2023-02-12T18:07:34.575Z,8.20
2023-02-12T18:10:05.824Z,8.13
2023-02-12T18:12:35.601Z,8.22
2023-02-12T18:15:04.330Z,8.35
2023-02-12T18:17:31.236Z,8.23
2023-02-12T18:20:06.847Z,8.09
2023-02-12T18:22:33.962Z,8.08
2023-02-12T18:25:00.521Z,7.95
2023-02-12T18:30:11.613Z,7.74
2023-02-12T18:32:42.132Z,7.76
2023-02-12T18:35:15.689Z,7.69
2023-02-12T18:38:13.211Z,7.59
2023-02-12T18:40:42.621Z,7.49
2023-02-12T18:43:24.644Z,7.46
2023-02-12T18:45:57.046Z,7.37
2023-02-12T18:51:19.162Z,7.31
2023-02-12T18:54:07.482Z,7.27
2023-02-12T18:56:40.557Z,7.26
2023-02-12T18:59:22.620Z,7.20
2023-02-12T19:01:52.340Z,7.13
2023-02-12T19:04:23.355Z,7.05
2023-02-12T19:06:54.305Z,6.96
2023-02-12T19:09:26.584Z,6.94
2023-02-12T19:11:58.370Z,6.91
2023-02-12T19:14:26.592Z,6.86
2023-02-12T19:16:53.592Z,6.82
2023-02-12T19:19:28.526Z,6.80
2023-02-12T19:21:55.177Z,6.75
2023-02-12T19:24:21.723Z,6.67
2023-02-12T19:26:53.847Z,6.66
2023-02-12T19:29:28.864Z,6.62
2023-02-12T19:31:58.600Z,6.54
2023-02-12T19:34:25.220Z,6.51
2023-02-12T19:36:58.679Z,6.46
2023-02-12T19:39:25.264Z,6.43
2023-02-12T19:41:52.068Z,6.42
2023-02-12T19:44:26.481Z,6.39
2023-02-12T19:46:57.037Z,6.35
2023-02-12T19:49:35.719Z,6.26
2023-02-12T19:52:08.910Z,6.23
2023-02-12T19:54:35.684Z,6.22
2023-02-12T19:57:02.468Z,6.16
2023-02-12T19:59:29.174Z,6.18
2023-02-12T20:02:01.352Z,6.22
2023-02-12T20:04:28.034Z,6.15
2023-02-12T20:06:54.750Z,6.11
2023-02-12T20:09:22.706Z,6.10
2023-02-12T20:11:52.509Z,6.02
2023-02-12T20:14:32.455Z,6.00
2023-02-12T20:17:02.924Z,5.98
2023-02-12T20:19:31.840Z,6.02
2023-02-12T20:21:59.551Z,5.98
2023-02-12T20:24:36.336Z,6.02
2023-02-12T20:27:03.769Z,6.01
2023-02-12T20:29:30.489Z,6.01
2023-02-12T20:32:02.113Z,5.91
2023-02-12T20:34:29.601Z,5.87
2023-02-12T20:36:57.244Z,5.92
2023-02-12T20:39:24.098Z,5.84
2023-02-12T20:41:50.773Z,5.80
2023-02-12T20:44:20.609Z,5.75
2023-02-12T20:46:50.102Z,5.70
2023-02-12T20:49:25.050Z,5.69
2023-02-12T20:51:53.769Z,5.57
2023-02-12T20:54:20.561Z,5.54
2023-02-12T20:56:51.313Z,5.51
2023-02-12T20:59:27.160Z,5.47
2023-02-12T21:02:04.167Z,5.42
2023-02-12T21:04:32.214Z,5.33
2023-02-12T21:07:05.432Z,5.31
2023-02-12T21:09:34.690Z,5.29
2023-02-12T21:12:06.956Z,5.28
2023-02-12T21:14:35.511Z,5.22
2023-02-12T21:17:04.577Z,5.03
2023-02-12T21:19:33.168Z,5.03
2023-02-12T21:22:00.750Z,5.01
2023-02-12T21:24:37.484Z,4.79
2023-02-12T21:27:04.180Z,4.79
2023-02-12T21:29:30.969Z,4.83
2023-02-12T21:31:59.385Z,4.79
2023-02-12T21:34:28.234Z,4.74
2023-02-12T21:36:56.710Z,4.71
2023-02-12T21:39:26.081Z,4.74
2023-02-12T21:41:57.970Z,4.71
2023-02-12T21:44:29.242Z,4.75
2023-02-12T21:46:58.295Z,4.70
2023-02-12T21:49:26.207Z,4.69
2023-02-12T21:51:55.438Z,4.70
2023-02-12T21:54:23.682Z,4.66
2023-02-12T21:56:51.066Z,4.66
2023-02-12T21:59:18.671Z,4.68
2023-02-12T22:01:50.958Z,4.66
2023-02-12T22:04:23.313Z,4.66
2023-02-12T22:06:58.204Z,4.66
2023-02-12T22:09:28.554Z,4.62
2023-02-12T22:11:57.920Z,4.63
2023-02-12T22:14:25.998Z,4.64
2023-02-12T22:16:52.693Z,4.61
2023-02-12T22:19:20.133Z,4.64
2023-02-12T22:21:50.515Z,4.67
2023-02-12T22:24:20.757Z,4.75
2023-02-12T22:26:51.913Z,4.61
2023-02-12T22:29:18.610Z,4.60
2023-02-12T22:31:48.114Z,4.65
2023-02-12T22:34:17.985Z,4.68
2023-02-12T22:36:50.579Z,4.70
2023-02-12T22:39:17.810Z,4.76
2023-02-12T22:42:19.921Z,4.83
2023-02-12T22:44:43.024Z,4.70
2023-02-12T22:47:10.685Z,4.66
2023-02-12T22:49:42.886Z,4.60
2023-02-12T22:52:18.725Z,4.59
2023-02-12T22:54:45.351Z,4.57
2023-02-12T22:57:11.934Z,4.51
2023-02-12T22:59:38.712Z,4.52
2023-02-12T23:02:10.154Z,4.60
2023-02-12T23:04:40.569Z,4.72
2023-02-12T23:07:08.886Z,4.71
2023-02-12T23:09:40.394Z,4.66
2023-02-12T23:12:07.292Z,4.59
2023-02-12T23:14:36.629Z,4.56
2023-02-12T23:17:08.701Z,4.60
2023-02-12T23:19:35.146Z,4.40
2023-02-12T23:22:15.348Z,4.43
2023-02-12T23:24:45.607Z,4.48
2023-02-12T23:27:19.421Z,4.44
2023-02-12T23:29:55.609Z,4.41
2023-02-12T23:32:24.803Z,4.23
2023-02-12T23:34:51.563Z,3.98
2023-02-12T23:37:30.035Z,3.97
2023-02-12T23:39:56.613Z,4.10
2023-02-12T23:42:30.747Z,4.23
2023-02-12T23:44:57.854Z,4.29
2023-02-12T23:47:31.272Z,4.19
2023-02-12T23:49:57.878Z,3.91
2023-02-12T23:52:29.969Z,3.81
2023-02-12T23:54:59.725Z,3.73
2023-02-12T23:57:33.670Z,3.79
